Observations for Trim Market St
| Time | AQI | Temp °C | Hum % | Pres Pa | CO μg/m³ | H₂S μg/m³ | NO μg/m³ | NO₂ μg/m³ | O₃ μg/m³ | SO₂ μg/m³ | PM1 μg/m³ | PM2.5 μg/m³ | PM10 μg/m³ |
|---|---|---|---|---|---|---|---|---|---|---|---|---|---|
| Friday 14 August 2026 | |||||||||||||
| 10:19 | 2 | 32.9 | 39 | 65,894 | 0.81 | 0 | 1.1 | 12.67 | 0 | 0 | 0 | 2.91 | 3.2 |
| 10:18 | 2 | 32.5 | 40 | 65,801 | 1.68 | 0 | 1.05 | 115.55 | 0 | 15.67 | 0.71 | 3.41 | 3.75 |
| 10:17 | 2 | 32.2 | 40 | 65,742 | 0.71 | 0 | 0.58 | 9.94 | 20.18 | 0 | 0 | 2.86 | 3.15 |
| 10:16 | 2 | 31.9 | 41 | 65,602 | 0.54 | 0 | 0.6 | 6.44 | 19.64 | 0 | 0 | 2.84 | 3.12 |
| 10:15 | 2 | 31.6 | 42 | 65,481 | 0.55 | 0 | 0.63 | 10.4 | 26.12 | 0 | 0 | 2.28 | 2.51 |
| 10:14 | 2 | 31.3 | 42 | 65,321 | 0.51 | 0 | 0.66 | 8.03 | 30.71 | 0 | 0 | 2.25 | 2.48 |
| 10:09 | 2 | 29.8 | 46 | 64,179 | 0.47 | 0 | 0.81 | 6.98 | 25.52 | 0 | 0.71 | 3.17 | 3.48 |
| 10:06 | 2 | 28.9 | 48 | 62,492 | 0.47 | 0 | 1.31 | 8.15 | 27.72 | 0 | 0.71 | 2.53 | 3.75 |
| 10:04 | 2 | 28.3 | 50 | 60,619 | 0.29 | 0 | 1.44 | 10.38 | 29.03 | 0 | 0 | 2.47 | 2.72 |
| 10:02 | 2 | 27.6 | 51 | 58,590 | 0.34 | 0 | 1.78 | 16.58 | 25.15 | 0 | 1.43 | 3.44 | 3.83 |
| 09:56 | 2 | 25.7 | 54 | 56,875 | 0 | 0 | 2.49 | 10.59 | 55.47 | 0 | 1.43 | 3.31 | 3.91 |
| 09:55 | 2 | 25.4 | 54 | 57,174 | 0 | 0 | 2.61 | 19.92 | 45.31 | 0 | 0 | 2.3 | 2.45 |
| 09:54 | 2 | 25.1 | 54 | 57,442 | 0.09 | 0 | 2.74 | 62.48 | 20.05 | 4.67 | 0.71 | 2.8 | 3.19 |
| 09:53 | 2 | 24.9 | 54 | 57,522 | 0.18 | 0 | 2.77 | 12.39 | 53.09 | 0 | 0 | 2.8 | 3.19 |
| 09:52 | 2 | 24.6 | 54 | 57,615 | 0 | 0 | 2.15 | 10.83 | 56.51 | 0 | 2.85 | 5.86 | 7.53 |
| 09:49 | 2 | 24.4 | 54 | 57,566 | 0 | 0 | 1.81 | 7.14 | 55.23 | 0 | 1.43 | 3.3 | 3.92 |
| 09:48 | 2 | 24.3 | 54 | 57,572 | 0 | 0 | 1.7 | 5.31 | 55.74 | 0 | 1.43 | 4.31 | 5.36 |
| 09:47 | 2 | 24.3 | 54 | 57,590 | 0 | 0 | 1.46 | 4.56 | 51.93 | 0 | 0.71 | 3.29 | 3.92 |
| 09:44 | 2 | 24.3 | 55 | 57,672 | 0 | 0 | 1.44 | 4.34 | 49.82 | 0 | 1.43 | 3.27 | 4.65 |
| 09:43 | 2 | 24.2 | 55 | 57,730 | 0 | 0 | 1.55 | 4.92 | 50.53 | 0 | 1.43 | 4.28 | 5.37 |